sensor_id;sensor_type;location;lat;lon;timestamp;temperature;humidity
4602;DHT22;2313;48.552;9.370;2022-07-30T00:00:23;17.20;99.90
4602;DHT22;2313;48.552;9.370;2022-07-30T00:02:49;17.10;99.90
4602;DHT22;2313;48.552;9.370;2022-07-30T00:05:15;17.30;99.90
4602;DHT22;2313;48.552;9.370;2022-07-30T00:07:40;17.30;99.90
4602;DHT22;2313;48.552;9.370;2022-07-30T00:10:06;17.40;99.90
4602;DHT22;2313;48.552;9.370;2022-07-30T00:12:32;17.40;99.90
4602;DHT22;2313;48.552;9.370;2022-07-30T00:14:58;17.50;99.90
4602;DHT22;2313;48.552;9.370;2022-07-30T00:17:23;17.70;99.90
4602;DHT22;2313;48.552;9.370;2022-07-30T00:19:49;17.90;99.90
4602;DHT22;2313;48.552;9.370;2022-07-30T00:22:14;18.10;99.90
4602;DHT22;2313;48.552;9.370;2022-07-30T00:24:40;18.20;99.90
4602;DHT22;2313;48.552;9.370;2022-07-30T00:27:06;18.30;99.90
4602;DHT22;2313;48.552;9.370;2022-07-30T00:29:31;18.50;99.90
4602;DHT22;2313;48.552;9.370;2022-07-30T00:31:57;18.60;99.90
4602;DHT22;2313;48.552;9.370;2022-07-30T00:34:23;18.80;99.90
4602;DHT22;2313;48.552;9.370;2022-07-30T00:36:48;18.90;99.90
4602;DHT22;2313;48.552;9.370;2022-07-30T00:39:14;19.00;99.90
4602;DHT22;2313;48.552;9.370;2022-07-30T00:42:12;19.00;99.90
4602;DHT22;2313;48.552;9.370;2022-07-30T00:44:38;19.10;99.90
4602;DHT22;2313;48.552;9.370;2022-07-30T00:47:03;19.10;99.90
4602;DHT22;2313;48.552;9.370;2022-07-30T00:49:29;19.10;99.90
4602;DHT22;2313;48.552;9.370;2022-07-30T00:51:55;19.10;99.90
4602;DHT22;2313;48.552;9.370;2022-07-30T00:54:21;19.10;99.90
4602;DHT22;2313;48.552;9.370;2022-07-30T00:56:47;19.00;99.90
4602;DHT22;2313;48.552;9.370;2022-07-30T00:59:13;19.00;99.90
4602;DHT22;2313;48.552;9.370;2022-07-30T01:01:38;19.00;99.90
4602;DHT22;2313;48.552;9.370;2022-07-30T01:04:04;19.00;99.90
4602;DHT22;2313;48.552;9.370;2022-07-30T01:06:38;19.00;99.90
4602;DHT22;2313;48.552;9.370;2022-07-30T01:09:05;18.90;99.90
4602;DHT22;2313;48.552;9.370;2022-07-30T01:11:35;18.90;99.90
4602;DHT22;2313;48.552;9.370;2022-07-30T01:14:02;18.90;99.90
4602;DHT22;2313;48.552;9.370;2022-07-30T01:16:28;19.00;99.90
4602;DHT22;2313;48.552;9.370;2022-07-30T01:18:55;19.00;99.90
4602;DHT22;2313;48.552;9.370;2022-07-30T01:21:45;19.00;99.90
4602;DHT22;2313;48.552;9.370;2022-07-30T01:24:26;19.00;99.90
4602;DHT22;2313;48.552;9.370;2022-07-30T01:26:53;19.00;99.90
4602;DHT22;2313;48.552;9.370;2022-07-30T01:29:20;19.00;99.90
4602;DHT22;2313;48.552;9.370;2022-07-30T01:31:48;19.00;99.90
4602;DHT22;2313;48.552;9.370;2022-07-30T01:34:15;19.00;99.90
4602;DHT22;2313;48.552;9.370;2022-07-30T01:36:44;19.00;99.90
4602;DHT22;2313;48.552;9.370;2022-07-30T01:39:11;19.00;99.90
4602;DHT22;2313;48.552;9.370;2022-07-30T01:41:37;19.00;99.90
4602;DHT22;2313;48.552;9.370;2022-07-30T01:44:04;18.90;99.90
4602;DHT22;2313;48.552;9.370;2022-07-30T01:46:32;18.90;99.90
4602;DHT22;2313;48.552;9.370;2022-07-30T01:48:59;18.90;99.90
4602;DHT22;2313;48.552;9.370;2022-07-30T01:51:26;18.90;99.90
4602;DHT22;2313;48.552;9.370;2022-07-30T01:53:52;18.80;99.90
4602;DHT22;2313;48.552;9.370;2022-07-30T01:56:22;18.80;99.90
4602;DHT22;2313;48.552;9.370;2022-07-30T01:58:49;18.70;99.90
4602;DHT22;2313;48.552;9.370;2022-07-30T02:01:16;18.70;99.90
4602;DHT22;2313;48.552;9.370;2022-07-30T02:03:42;18.60;99.90
4602;DHT22;2313;48.552;9.370;2022-07-30T02:06:20;18.60;99.90
4602;DHT22;2313;48.552;9.370;2022-07-30T02:08:55;18.60;99.90
4602;DHT22;2313;48.552;9.370;2022-07-30T02:11:22;18.50;99.90
4602;DHT22;2313;48.552;9.370;2022-07-30T02:14:18;18.50;99.90
4602;DHT22;2313;48.552;9.370;2022-07-30T02:16:50;18.50;99.90
4602;DHT22;2313;48.552;9.370;2022-07-30T02:19:18;18.40;99.90
4602;DHT22;2313;48.552;9.370;2022-07-30T02:21:48;18.40;99.90
4602;DHT22;2313;48.552;9.370;2022-07-30T02:24:23;18.40;99.90
4602;DHT22;2313;48.552;9.370;2022-07-30T02:26:56;18.30;99.90
4602;DHT22;2313;48.552;9.370;2022-07-30T02:29:24;18.30;99.90
4602;DHT22;2313;48.552;9.370;2022-07-30T02:31:51;18.20;99.90
4602;DHT22;2313;48.552;9.370;2022-07-30T02:34:20;18.20;99.90
4602;DHT22;2313;48.552;9.370;2022-07-30T02:36:48;18.10;99.90
4602;DHT22;2313;48.552;9.370;2022-07-30T02:39:15;18.00;99.90
4602;DHT22;2313;48.552;9.370;2022-07-30T02:41:42;17.90;99.90
4602;DHT22;2313;48.552;9.370;2022-07-30T02:44:09;17.80;99.90
4602;DHT22;2313;48.552;9.370;2022-07-30T02:46:36;17.60;99.90
4602;DHT22;2313;48.552;9.370;2022-07-30T02:49:04;17.60;99.90
4602;DHT22;2313;48.552;9.370;2022-07-30T02:51:31;17.60;99.90
4602;DHT22;2313;48.552;9.370;2022-07-30T02:53:58;17.60;99.90
4602;DHT22;2313;48.552;9.370;2022-07-30T02:56:25;17.50;99.90
4602;DHT22;2313;48.552;9.370;2022-07-30T02:58:52;17.50;99.90
4602;DHT22;2313;48.552;9.370;2022-07-30T03:01:20;17.40;99.90
4602;DHT22;2313;48.552;9.370;2022-07-30T03:03:47;17.40;99.90
4602;DHT22;2313;48.552;9.370;2022-07-30T03:06:14;17.40;99.90
4602;DHT22;2313;48.552;9.370;2022-07-30T03:08:42;17.50;99.90
4602;DHT22;2313;48.552;9.370;2022-07-30T03:11:10;17.40;99.90
4602;DHT22;2313;48.552;9.370;2022-07-30T03:13:36;17.40;99.90
4602;DHT22;2313;48.552;9.370;2022-07-30T03:16:05;17.40;99.90
4602;DHT22;2313;48.552;9.370;2022-07-30T03:18:33;17.30;99.90
4602;DHT22;2313;48.552;9.370;2022-07-30T03:21:01;17.30;99.90
4602;DHT22;2313;48.552;9.370;2022-07-30T03:23:32;17.30;99.90
4602;DHT22;2313;48.552;9.370;2022-07-30T03:26:01;17.30;99.90
4602;DHT22;2313;48.552;9.370;2022-07-30T03:28:30;17.30;99.90
4602;DHT22;2313;48.552;9.370;2022-07-30T03:30:56;17.20;99.90
4602;DHT22;2313;48.552;9.370;2022-07-30T03:33:22;17.20;99.90
4602;DHT22;2313;48.552;9.370;2022-07-30T03:35:49;17.20;99.90
4602;DHT22;2313;48.552;9.370;2022-07-30T03:38:16;17.20;99.90
4602;DHT22;2313;48.552;9.370;2022-07-30T03:40:43;17.30;99.90
4602;DHT22;2313;48.552;9.370;2022-07-30T03:43:10;17.30;99.90
4602;DHT22;2313;48.552;9.370;2022-07-30T03:45:39;17.30;99.90
4602;DHT22;2313;48.552;9.370;2022-07-30T03:48:07;17.30;99.90
4602;DHT22;2313;48.552;9.370;2022-07-30T03:50:35;17.40;99.90
4602;DHT22;2313;48.552;9.370;2022-07-30T03:53:03;17.40;99.90
4602;DHT22;2313;48.552;9.370;2022-07-30T03:55:29;17.50;99.90
4602;DHT22;2313;48.552;9.370;2022-07-30T03:57:55;17.50;99.90
4602;DHT22;2313;48.552;9.370;2022-07-30T04:00:21;17.50;99.90
4602;DHT22;2313;48.552;9.370;2022-07-30T04:02:47;17.60;99.90
4602;DHT22;2313;48.552;9.370;2022-07-30T04:05:14;17.70;99.90
4602;DHT22;2313;48.552;9.370;2022-07-30T04:07:40;17.70;99.90
4602;DHT22;2313;48.552;9.370;2022-07-30T04:10:06;17.70;99.90
4602;DHT22;2313;48.552;9.370;2022-07-30T04:12:32;17.70;99.90
4602;DHT22;2313;48.552;9.370;2022-07-30T04:14:58;17.70;99.90
4602;DHT22;2313;48.552;9.370;2022-07-30T04:17:28;17.80;99.90
4602;DHT22;2313;48.552;9.370;2022-07-30T04:20:05;17.80;99.90
4602;DHT22;2313;48.552;9.370;2022-07-30T04:22:35;17.70;99.90
4602;DHT22;2313;48.552;9.370;2022-07-30T04:25:03;17.70;99.90
4602;DHT22;2313;48.552;9.370;2022-07-30T04:27:31;17.60;99.90
4602;DHT22;2313;48.552;9.370;2022-07-30T04:29:58;17.60;99.90
4602;DHT22;2313;48.552;9.370;2022-07-30T04:32:25;17.60;99.90
4602;DHT22;2313;48.552;9.370;2022-07-30T04:34:53;17.50;99.90
4602;DHT22;2313;48.552;9.370;2022-07-30T04:37:21;17.40;99.90
4602;DHT22;2313;48.552;9.370;2022-07-30T04:39:48;17.40;99.90
4602;DHT22;2313;48.552;9.370;2022-07-30T04:42:25;17.40;99.90
4602;DHT22;2313;48.552;9.370;2022-07-30T04:44:51;17.30;99.90
4602;DHT22;2313;48.552;9.370;2022-07-30T04:47:17;17.20;99.90
4602;DHT22;2313;48.552;9.370;2022-07-30T04:49:43;17.30;99.90
4602;DHT22;2313;48.552;9.370;2022-07-30T04:52:10;17.20;99.90
4602;DHT22;2313;48.552;9.370;2022-07-30T04:54:54;17.30;99.90
4602;DHT22;2313;48.552;9.370;2022-07-30T04:57:20;17.40;99.90
4602;DHT22;2313;48.552;9.370;2022-07-30T04:59:46;17.50;99.90
4602;DHT22;2313;48.552;9.370;2022-07-30T05:02:14;17.60;99.90
4602;DHT22;2313;48.552;9.370;2022-07-30T05:04:41;17.60;99.90
4602;DHT22;2313;48.552;9.370;2022-07-30T05:07:11;17.70;99.90
4602;DHT22;2313;48.552;9.370;2022-07-30T05:09:39;17.80;99.90
4602;DHT22;2313;48.552;9.370;2022-07-30T05:12:05;17.90;99.90
4602;DHT22;2313;48.552;9.370;2022-07-30T05:14:34;17.90;99.90
4602;DHT22;2313;48.552;9.370;2022-07-30T05:17:00;17.90;99.90
4602;DHT22;2313;48.552;9.370;2022-07-30T05:19:26;18.00;99.90
4602;DHT22;2313;48.552;9.370;2022-07-30T05:21:51;18.00;99.90
4602;DHT22;2313;48.552;9.370;2022-07-30T05:24:17;18.10;99.90
4602;DHT22;2313;48.552;9.370;2022-07-30T05:26:43;18.20;99.90
4602;DHT22;2313;48.552;9.370;2022-07-30T05:29:09;18.40;99.90
4602;DHT22;2313;48.552;9.370;2022-07-30T05:31:35;18.50;99.90
4602;DHT22;2313;48.552;9.370;2022-07-30T05:34:01;18.60;99.90
4602;DHT22;2313;48.552;9.370;2022-07-30T05:36:27;18.50;99.90
4602;DHT22;2313;48.552;9.370;2022-07-30T05:38:52;18.60;99.90
4602;DHT22;2313;48.552;9.370;2022-07-30T05:41:18;18.70;99.90
4602;DHT22;2313;48.552;9.370;2022-07-30T05:43:44;18.80;99.90
4602;DHT22;2313;48.552;9.370;2022-07-30T05:46:09;18.90;99.90
4602;DHT22;2313;48.552;9.370;2022-07-30T05:48:35;19.10;99.90
4602;DHT22;2313;48.552;9.370;2022-07-30T05:51:01;19.30;99.90
4602;DHT22;2313;48.552;9.370;2022-07-30T05:53:28;19.30;99.90
4602;DHT22;2313;48.552;9.370;2022-07-30T05:55:53;19.40;99.90
4602;DHT22;2313;48.552;9.370;2022-07-30T05:58:19;19.40;99.90
4602;DHT22;2313;48.552;9.370;2022-07-30T06:00:45;19.50;99.90
4602;DHT22;2313;48.552;9.370;2022-07-30T06:03:10;19.50;99.90
4602;DHT22;2313;48.552;9.370;2022-07-30T06:05:36;19.40;99.90
4602;DHT22;2313;48.552;9.370;2022-07-30T06:08:02;19.50;99.90
4602;DHT22;2313;48.552;9.370;2022-07-30T06:10:28;19.60;99.90
4602;DHT22;2313;48.552;9.370;2022-07-30T06:12:54;19.70;99.90
4602;DHT22;2313;48.552;9.370;2022-07-30T06:15:20;19.70;99.90
4602;DHT22;2313;48.552;9.370;2022-07-30T06:17:46;19.80;99.90
4602;DHT22;2313;48.552;9.370;2022-07-30T06:20:15;19.90;99.90
4602;DHT22;2313;48.552;9.370;2022-07-30T06:22:41;19.90;99.90
4602;DHT22;2313;48.552;9.370;2022-07-30T06:25:08;20.00;99.90
4602;DHT22;2313;48.552;9.370;2022-07-30T06:27:34;20.00;99.90
4602;DHT22;2313;48.552;9.370;2022-07-30T06:30:02;20.10;99.90
4602;DHT22;2313;48.552;9.370;2022-07-30T06:32:28;20.20;99.90
4602;DHT22;2313;48.552;9.370;2022-07-30T06:34:53;20.30;99.90
4602;DHT22;2313;48.552;9.370;2022-07-30T06:37:19;20.40;99.90
4602;DHT22;2313;48.552;9.370;2022-07-30T06:39:45;20.50;99.90
4602;DHT22;2313;48.552;9.370;2022-07-30T06:42:10;20.50;99.90
4602;DHT22;2313;48.552;9.370;2022-07-30T06:44:36;20.60;99.90
4602;DHT22;2313;48.552;9.370;2022-07-30T06:47:01;20.60;99.90
4602;DHT22;2313;48.552;9.370;2022-07-30T06:49:30;20.70;99.90
4602;DHT22;2313;48.552;9.370;2022-07-30T06:51:56;20.70;99.90
4602;DHT22;2313;48.552;9.370;2022-07-30T06:54:22;20.80;99.90
4602;DHT22;2313;48.552;9.370;2022-07-30T06:56:47;20.90;99.90
4602;DHT22;2313;48.552;9.370;2022-07-30T06:59:13;20.90;99.90
4602;DHT22;2313;48.552;9.370;2022-07-30T07:01:38;21.00;99.90
4602;DHT22;2313;48.552;9.370;2022-07-30T07:04:04;21.00;99.90
4602;DHT22;2313;48.552;9.370;2022-07-30T07:06:30;21.00;99.90
4602;DHT22;2313;48.552;9.370;2022-07-30T07:08:55;21.10;99.90
4602;DHT22;2313;48.552;9.370;2022-07-30T07:11:21;21.10;99.90
4602;DHT22;2313;48.552;9.370;2022-07-30T07:13:46;21.20;99.90
4602;DHT22;2313;48.552;9.370;2022-07-30T07:16:12;21.10;99.90
4602;DHT22;2313;48.552;9.370;2022-07-30T07:18:38;21.20;99.90
4602;DHT22;2313;48.552;9.370;2022-07-30T07:21:03;21.20;99.90
4602;DHT22;2313;48.552;9.370;2022-07-30T07:23:29;21.30;99.90
4602;DHT22;2313;48.552;9.370;2022-07-30T07:25:55;21.30;99.90
4602;DHT22;2313;48.552;9.370;2022-07-30T07:28:21;21.40;99.90
4602;DHT22;2313;48.552;9.370;2022-07-30T07:30:47;21.40;99.90
4602;DHT22;2313;48.552;9.370;2022-07-30T07:33:12;21.50;99.90
4602;DHT22;2313;48.552;9.370;2022-07-30T07:35:38;21.60;99.90
4602;DHT22;2313;48.552;9.370;2022-07-30T07:38:03;21.60;99.90
4602;DHT22;2313;48.552;9.370;2022-07-30T07:40:29;21.60;99.90
4602;DHT22;2313;48.552;9.370;2022-07-30T07:42:55;21.50;99.90
4602;DHT22;2313;48.552;9.370;2022-07-30T07:45:20;21.50;99.90
4602;DHT22;2313;48.552;9.370;2022-07-30T07:47:47;21.50;99.90
4602;DHT22;2313;48.552;9.370;2022-07-30T07:50:15;21.40;99.90
4602;DHT22;2313;48.552;9.370;2022-07-30T07:52:41;21.50;99.90
4602;DHT22;2313;48.552;9.370;2022-07-30T07:55:07;21.50;99.90
4602;DHT22;2313;48.552;9.370;2022-07-30T07:57:43;21.60;99.90
4602;DHT22;2313;48.552;9.370;2022-07-30T08:00:12;21.70;99.90
4602;DHT22;2313;48.552;9.370;2022-07-30T08:02:42;21.70;99.90
4602;DHT22;2313;48.552;9.370;2022-07-30T08:05:09;21.70;99.90
4602;DHT22;2313;48.552;9.370;2022-07-30T08:07:40;21.80;99.90
4602;DHT22;2313;48.552;9.370;2022-07-30T08:10:07;21.80;99.90
4602;DHT22;2313;48.552;9.370;2022-07-30T08:12:33;21.90;99.90
4602;DHT22;2313;48.552;9.370;2022-07-30T08:14:59;22.00;99.90
4602;DHT22;2313;48.552;9.370;2022-07-30T08:17:25;22.10;99.90
4602;DHT22;2313;48.552;9.370;2022-07-30T08:19:51;22.10;99.90
4602;DHT22;2313;48.552;9.370;2022-07-30T08:22:17;22.20;99.90
4602;DHT22;2313;48.552;9.370;2022-07-30T08:24:43;22.30;99.90
4602;DHT22;2313;48.552;9.370;2022-07-30T08:27:08;22.40;99.90
4602;DHT22;2313;48.552;9.370;2022-07-30T08:29:34;22.40;99.90
4602;DHT22;2313;48.552;9.370;2022-07-30T08:32:03;22.60;99.90
4602;DHT22;2313;48.552;9.370;2022-07-30T08:34:28;22.70;99.90
4602;DHT22;2313;48.552;9.370;2022-07-30T08:36:54;22.80;99.90
4602;DHT22;2313;48.552;9.370;2022-07-30T08:39:20;22.90;99.90
4602;DHT22;2313;48.552;9.370;2022-07-30T08:41:46;22.80;99.90
4602;DHT22;2313;48.552;9.370;2022-07-30T08:44:16;22.90;99.90
4602;DHT22;2313;48.552;9.370;2022-07-30T08:46:43;23.10;99.90
4602;DHT22;2313;48.552;9.370;2022-07-30T08:49:11;23.20;99.90
4602;DHT22;2313;48.552;9.370;2022-07-30T08:51:37;23.40;99.90
4602;DHT22;2313;48.552;9.370;2022-07-30T08:54:04;23.50;99.90
4602;DHT22;2313;48.552;9.370;2022-07-30T08:56:32;23.50;99.90
4602;DHT22;2313;48.552;9.370;2022-07-30T08:58:59;23.70;99.90
4602;DHT22;2313;48.552;9.370;2022-07-30T09:01:25;23.80;99.90
4602;DHT22;2313;48.552;9.370;2022-07-30T09:03:50;23.80;99.90
4602;DHT22;2313;48.552;9.370;2022-07-30T09:06:16;23.90;99.90
4602;DHT22;2313;48.552;9.370;2022-07-30T09:08:42;23.80;99.50
4602;DHT22;2313;48.552;9.370;2022-07-30T09:11:07;23.80;99.70
4602;DHT22;2313;48.552;9.370;2022-07-30T09:13:35;24.10;99.10
4602;DHT22;2313;48.552;9.370;2022-07-30T09:16:03;24.10;98.90
4602;DHT22;2313;48.552;9.370;2022-07-30T09:18:35;24.10;98.50
4602;DHT22;2313;48.552;9.370;2022-07-30T09:21:19;24.40;98.00
4602;DHT22;2313;48.552;9.370;2022-07-30T09:24:13;24.70;96.20
4602;DHT22;2313;48.552;9.370;2022-07-30T09:26:59;24.90;95.10
4602;DHT22;2313;48.552;9.370;2022-07-30T09:29:27;24.80;94.70
4602;DHT22;2313;48.552;9.370;2022-07-30T09:31:57;24.90;93.70
4602;DHT22;2313;48.552;9.370;2022-07-30T09:34:32;25.00;92.30
4602;DHT22;2313;48.552;9.370;2022-07-30T09:37:04;24.70;93.60
4602;DHT22;2313;48.552;9.370;2022-07-30T09:39:35;24.50;93.00
4602;DHT22;2313;48.552;9.370;2022-07-30T09:42:02;24.40;93.40
4602;DHT22;2313;48.552;9.370;2022-07-30T09:44:29;24.90;93.40
4602;DHT22;2313;48.552;9.370;2022-07-30T09:46:56;25.30;92.60
4602;DHT22;2313;48.552;9.370;2022-07-30T09:49:26;25.70;90.40
4602;DHT22;2313;48.552;9.370;2022-07-30T09:51:53;25.70;91.00
4602;DHT22;2313;48.552;9.370;2022-07-30T09:54:19;26.00;91.00
4602;DHT22;2313;48.552;9.370;2022-07-30T09:56:45;26.30;89.20
4602;DHT22;2313;48.552;9.370;2022-07-30T09:59:28;26.70;86.50
4602;DHT22;2313;48.552;9.370;2022-07-30T10:01:55;27.20;85.60
4602;DHT22;2313;48.552;9.370;2022-07-30T10:04:30;27.60;79.90
4602;DHT22;2313;48.552;9.370;2022-07-30T10:06:57;27.50;81.60
4602;DHT22;2313;48.552;9.370;2022-07-30T10:11:58;27.60;80.00
4602;DHT22;2313;48.552;9.370;2022-07-30T10:14:28;27.90;78.40
4602;DHT22;2313;48.552;9.370;2022-07-30T10:16:55;28.20;77.00
4602;DHT22;2313;48.552;9.370;2022-07-30T10:19:21;28.30;76.00
4602;DHT22;2313;48.552;9.370;2022-07-30T10:21:48;28.40;72.80
4602;DHT22;2313;48.552;9.370;2022-07-30T10:24:16;28.70;74.60
4602;DHT22;2313;48.552;9.370;2022-07-30T10:26:42;28.90;73.50
4602;DHT22;2313;48.552;9.370;2022-07-30T10:29:15;28.60;68.90
4602;DHT22;2313;48.552;9.370;2022-07-30T10:31:46;28.20;70.70
4602;DHT22;2313;48.552;9.370;2022-07-30T10:34:12;27.80;71.50
4602;DHT22;2313;48.552;9.370;2022-07-30T10:37:02;27.90;72.10
4602;DHT22;2313;48.552;9.370;2022-07-30T10:39:36;28.20;71.80
4602;DHT22;2313;48.552;9.370;2022-07-30T10:47:28;28.50;69.50
4602;DHT22;2313;48.552;9.370;2022-07-30T10:50:11;28.40;69.30
4602;DHT22;2313;48.552;9.370;2022-07-30T10:52:54;28.40;69.40
4602;DHT22;2313;48.552;9.370;2022-07-30T10:55:22;28.40;70.30
4602;DHT22;2313;48.552;9.370;2022-07-30T10:58:12;28.40;69.10
4602;DHT22;2313;48.552;9.370;2022-07-30T11:03:28;28.60;68.10
4602;DHT22;2313;48.552;9.370;2022-07-30T11:08:40;28.60;66.10
4602;DHT22;2313;48.552;9.370;2022-07-30T11:13:58;28.70;68.00
4602;DHT22;2313;48.552;9.370;2022-07-30T11:19:15;28.70;66.30
4602;DHT22;2313;48.552;9.370;2022-07-30T11:21:42;28.60;68.00
4602;DHT22;2313;48.552;9.370;2022-07-30T11:27:05;28.70;65.60
4602;DHT22;2313;48.552;9.370;2022-07-30T11:29:39;28.80;63.80
4602;DHT22;2313;48.552;9.370;2022-07-30T11:32:24;28.80;64.10
4602;DHT22;2313;48.552;9.370;2022-07-30T11:35:27;28.80;63.20
4602;DHT22;2313;48.552;9.370;2022-07-30T11:38:07;28.90;65.80
4602;DHT22;2313;48.552;9.370;2022-07-30T11:40:38;28.60;65.40
4602;DHT22;2313;48.552;9.370;2022-07-30T11:43:33;28.60;65.70
4602;DHT22;2313;48.552;9.370;2022-07-30T11:46:07;28.90;64.80
4602;DHT22;2313;48.552;9.370;2022-07-30T11:48:33;29.00;63.80
4602;DHT22;2313;48.552;9.370;2022-07-30T11:50:59;29.20;65.60
4602;DHT22;2313;48.552;9.370;2022-07-30T11:53:25;29.10;64.90
4602;DHT22;2313;48.552;9.370;2022-07-30T11:55:52;28.70;64.70
4602;DHT22;2313;48.552;9.370;2022-07-30T11:58:35;28.30;65.90
4602;DHT22;2313;48.552;9.370;2022-07-30T12:01:15;28.30;65.40
4602;DHT22;2313;48.552;9.370;2022-07-30T12:03:42;28.10;65.80
4602;DHT22;2313;48.552;9.370;2022-07-30T12:06:13;27.90;65.40
4602;DHT22;2313;48.552;9.370;2022-07-30T12:08:51;27.60;66.10
4602;DHT22;2313;48.552;9.370;2022-07-30T12:11:18;27.30;68.00
4602;DHT22;2313;48.552;9.370;2022-07-30T12:13:54;27.50;68.30
4602;DHT22;2313;48.552;9.370;2022-07-30T12:16:21;27.80;68.10
4602;DHT22;2313;48.552;9.370;2022-07-30T12:18:46;28.10;69.90
4602;DHT22;2313;48.552;9.370;2022-07-30T12:21:13;28.20;66.00
4602;DHT22;2313;48.552;9.370;2022-07-30T12:26:39;27.80;65.60
4602;DHT22;2313;48.552;9.370;2022-07-30T12:29:06;27.80;68.90
4602;DHT22;2313;48.552;9.370;2022-07-30T12:31:36;27.50;67.00
4602;DHT22;2313;48.552;9.370;2022-07-30T12:34:01;27.70;68.40
4602;DHT22;2313;48.552;9.370;2022-07-30T12:36:30;27.90;68.80
4602;DHT22;2313;48.552;9.370;2022-07-30T12:38:57;28.00;66.90
4602;DHT22;2313;48.552;9.370;2022-07-30T12:41:42;28.20;66.50
4602;DHT22;2313;48.552;9.370;2022-07-30T12:44:08;28.50;65.10
4602;DHT22;2313;48.552;9.370;2022-07-30T12:46:39;28.60;66.00
4602;DHT22;2313;48.552;9.370;2022-07-30T12:49:06;28.80;66.40
4602;DHT22;2313;48.552;9.370;2022-07-30T12:51:36;29.00;64.50
4602;DHT22;2313;48.552;9.370;2022-07-30T12:54:14;29.10;64.30
4602;DHT22;2313;48.552;9.370;2022-07-30T12:56:57;29.20;63.30
4602;DHT22;2313;48.552;9.370;2022-07-30T12:59:24;29.10;61.10
4602;DHT22;2313;48.552;9.370;2022-07-30T13:01:51;29.00;64.40
4602;DHT22;2313;48.552;9.370;2022-07-30T13:04:17;28.70;63.20
4602;DHT22;2313;48.552;9.370;2022-07-30T13:06:43;28.80;64.20
4602;DHT22;2313;48.552;9.370;2022-07-30T13:09:19;28.40;61.80
4602;DHT22;2313;48.552;9.370;2022-07-30T13:11:45;28.20;62.20
4602;DHT22;2313;48.552;9.370;2022-07-30T13:14:12;27.90;63.70
4602;DHT22;2313;48.552;9.370;2022-07-30T13:16:39;27.90;62.90
4602;DHT22;2313;48.552;9.370;2022-07-30T13:19:07;28.00;64.30
4602;DHT22;2313;48.552;9.370;2022-07-30T13:21:35;28.20;64.50
4602;DHT22;2313;48.552;9.370;2022-07-30T13:24:01;28.30;63.80
4602;DHT22;2313;48.552;9.370;2022-07-30T13:26:27;28.50;62.40
4602;DHT22;2313;48.552;9.370;2022-07-30T13:28:56;28.70;60.80
4602;DHT22;2313;48.552;9.370;2022-07-30T13:31:22;28.70;60.80
4602;DHT22;2313;48.552;9.370;2022-07-30T13:33:48;28.40;59.90
4602;DHT22;2313;48.552;9.370;2022-07-30T13:36:15;28.30;60.70
4602;DHT22;2313;48.552;9.370;2022-07-30T13:38:40;28.30;59.80
4602;DHT22;2313;48.552;9.370;2022-07-30T13:41:06;28.30;62.60
4602;DHT22;2313;48.552;9.370;2022-07-30T13:43:32;28.50;62.40
4602;DHT22;2313;48.552;9.370;2022-07-30T13:45:58;28.60;61.10
4602;DHT22;2313;48.552;9.370;2022-07-30T13:48:24;28.70;60.60
4602;DHT22;2313;48.552;9.370;2022-07-30T13:50:50;28.80;59.50
4602;DHT22;2313;48.552;9.370;2022-07-30T13:53:15;28.70;60.60
4602;DHT22;2313;48.552;9.370;2022-07-30T13:55:41;28.80;59.70
4602;DHT22;2313;48.552;9.370;2022-07-30T13:58:08;28.90;60.20
4602;DHT22;2313;48.552;9.370;2022-07-30T14:00:35;29.00;59.50
4602;DHT22;2313;48.552;9.370;2022-07-30T14:03:08;29.00;59.80
4602;DHT22;2313;48.552;9.370;2022-07-30T14:05:36;29.00;58.90
4602;DHT22;2313;48.552;9.370;2022-07-30T14:08:03;29.00;58.80
4602;DHT22;2313;48.552;9.370;2022-07-30T14:10:30;29.10;58.90
4602;DHT22;2313;48.552;9.370;2022-07-30T14:12:56;29.10;58.90
4602;DHT22;2313;48.552;9.370;2022-07-30T14:15:23;29.20;59.30
4602;DHT22;2313;48.552;9.370;2022-07-30T14:17:49;29.10;58.30
4602;DHT22;2313;48.552;9.370;2022-07-30T14:20:16;29.00;58.50
4602;DHT22;2313;48.552;9.370;2022-07-30T14:22:41;28.60;58.40
4602;DHT22;2313;48.552;9.370;2022-07-30T14:25:07;28.30;58.80
4602;DHT22;2313;48.552;9.370;2022-07-30T14:27:33;28.20;59.70
4602;DHT22;2313;48.552;9.370;2022-07-30T14:29:59;28.10;59.60
4602;DHT22;2313;48.552;9.370;2022-07-30T14:32:25;28.00;60.80
4602;DHT22;2313;48.552;9.370;2022-07-30T14:34:51;27.90;61.00
4602;DHT22;2313;48.552;9.370;2022-07-30T14:37:16;27.90;60.90
4602;DHT22;2313;48.552;9.370;2022-07-30T14:39:42;28.00;61.90
4602;DHT22;2313;48.552;9.370;2022-07-30T14:42:09;28.10;61.00
4602;DHT22;2313;48.552;9.370;2022-07-30T14:44:35;28.00;60.60
4602;DHT22;2313;48.552;9.370;2022-07-30T14:47:00;27.90;60.60
4602;DHT22;2313;48.552;9.370;2022-07-30T14:49:26;27.90;60.80
4602;DHT22;2313;48.552;9.370;2022-07-30T14:51:52;27.90;60.60
4602;DHT22;2313;48.552;9.370;2022-07-30T14:54:18;28.00;62.90
4602;DHT22;2313;48.552;9.370;2022-07-30T14:56:43;28.10;61.50
4602;DHT22;2313;48.552;9.370;2022-07-30T14:59:09;28.00;59.90
4602;DHT22;2313;48.552;9.370;2022-07-30T15:01:35;28.00;60.80
4602;DHT22;2313;48.552;9.370;2022-07-30T15:04:01;27.90;59.50
4602;DHT22;2313;48.552;9.370;2022-07-30T15:06:27;27.90;59.90
4602;DHT22;2313;48.552;9.370;2022-07-30T15:08:53;27.80;60.10
4602;DHT22;2313;48.552;9.370;2022-07-30T15:11:18;27.80;61.10
4602;DHT22;2313;48.552;9.370;2022-07-30T15:13:44;27.70;61.80
4602;DHT22;2313;48.552;9.370;2022-07-30T15:16:10;27.70;61.30
4602;DHT22;2313;48.552;9.370;2022-07-30T15:18:36;27.50;60.20
4602;DHT22;2313;48.552;9.370;2022-07-30T15:21:02;27.40;61.50
4602;DHT22;2313;48.552;9.370;2022-07-30T15:23:28;27.20;62.90
4602;DHT22;2313;48.552;9.370;2022-07-30T15:25:53;27.00;64.80
4602;DHT22;2313;48.552;9.370;2022-07-30T15:28:19;26.90;65.10
4602;DHT22;2313;48.552;9.370;2022-07-30T15:30:45;26.80;64.70
4602;DHT22;2313;48.552;9.370;2022-07-30T15:33:10;26.80;64.40
4602;DHT22;2313;48.552;9.370;2022-07-30T15:35:36;26.80;64.30
4602;DHT22;2313;48.552;9.370;2022-07-30T15:38:02;26.70;64.50
4602;DHT22;2313;48.552;9.370;2022-07-30T15:40:28;26.60;67.80
4602;DHT22;2313;48.552;9.370;2022-07-30T15:42:54;26.60;66.30
4602;DHT22;2313;48.552;9.370;2022-07-30T15:45:20;26.50;67.10
4602;DHT22;2313;48.552;9.370;2022-07-30T15:47:47;26.40;68.70
4602;DHT22;2313;48.552;9.370;2022-07-30T15:50:13;26.50;68.00
4602;DHT22;2313;48.552;9.370;2022-07-30T15:52:40;26.60;68.10
4602;DHT22;2313;48.552;9.370;2022-07-30T15:55:06;26.50;69.00
4602;DHT22;2313;48.552;9.370;2022-07-30T15:57:32;26.50;69.30
4602;DHT22;2313;48.552;9.370;2022-07-30T15:59:58;26.50;68.40
4602;DHT22;2313;48.552;9.370;2022-07-30T16:02:24;26.40;69.00
4602;DHT22;2313;48.552;9.370;2022-07-30T16:04:49;26.40;68.00
4602;DHT22;2313;48.552;9.370;2022-07-30T16:07:15;26.40;69.00
4602;DHT22;2313;48.552;9.370;2022-07-30T16:09:41;26.40;68.60
4602;DHT22;2313;48.552;9.370;2022-07-30T16:12:07;26.30;71.10
4602;DHT22;2313;48.552;9.370;2022-07-30T16:14:33;26.30;70.10
4602;DHT22;2313;48.552;9.370;2022-07-30T16:16:59;26.20;69.40
4602;DHT22;2313;48.552;9.370;2022-07-30T16:19:25;26.10;69.50
4602;DHT22;2313;48.552;9.370;2022-07-30T16:21:50;26.00;69.70
4602;DHT22;2313;48.552;9.370;2022-07-30T16:24:16;26.00;71.00
4602;DHT22;2313;48.552;9.370;2022-07-30T16:26:42;26.00;71.20
4602;DHT22;2313;48.552;9.370;2022-07-30T16:29:08;25.90;72.40
4602;DHT22;2313;48.552;9.370;2022-07-30T16:31:35;25.80;72.60